Time;durP1;ratioP1;P1;durP2;ratioP2;P2;SDS_P1;SDS_P2;PMS_P1;PMS_P2;Temp;Humidity;BMP_temperature;BMP_pressure;BME280_temperature;BME280_humidity;BME280_pressure;Samples;Min_cycle;Max_cycle;Signal;HPM_P1;HPM_P2
2021/10/09 00:01:43;;;;;;;11.10;6.23;;;;;;;5.45;50.62;101487.38;1699984;82;22039;-64
2021/10/09 00:04:09;;;;;;;8.20;6.75;;;;;;;5.45;50.53;101492.60;1702042;82;21578;-63
2021/10/09 00:06:36;;;;;;;12.07;6.20;;;;;;;5.41;50.71;101489.09;1698286;82;21520;-63
2021/10/09 00:09:03;;;;;;;13.13;7.58;;;;;;;5.41;50.64;101491.70;1708009;82;21468;-62
2021/10/09 00:11:37;;;;;;;10.10;6.90;;;;;;;5.40;50.82;101495.59;1701228;82;21487;-63
2021/10/09 00:14:08;;;;;;;9.65;6.92;;;;;;;5.39;50.90;101489.52;1702648;82;21828;-62
2021/10/09 00:16:36;;;;;;;13.78;6.50;;;;;;;5.35;50.95;101482.53;1699379;82;21545;-62
2021/10/09 00:19:03;;;;;;;;;;;;;;;5.32;51.15;101481.19;1710174;82;21614;-62
2021/10/09 00:21:29;;;;;;;12.43;6.53;;;;;;;5.31;51.61;101478.56;1698896;82;20422;-62
2021/10/09 00:23:58;;;;;;;13.95;6.28;;;;;;;5.24;51.38;101478.52;1711873;82;21558;-64
2021/10/09 00:26:25;;;;;;;10.15;6.67;;;;;;;5.23;51.47;101485.88;1706859;82;22026;-62
2021/10/09 00:28:52;;;;;;;9.93;5.93;;;;;;;5.21;51.60;101473.27;1698352;82;21089;-62
2021/10/09 00:31:19;;;;;;;9.93;6.30;;;;;;;5.22;51.67;101475.47;1702999;82;21587;-62
2021/10/09 00:33:46;;;;;;;9.85;6.33;;;;;;;5.19;51.68;101471.52;1694217;82;21574;-62
2021/10/09 00:36:12;;;;;;;10.03;6.47;;;;;;;5.17;51.84;101470.63;1701459;82;21519;-62
2021/10/09 00:38:39;;;;;;;8.63;6.50;;;;;;;5.14;51.89;101476.70;1708562;82;21814;-62
2021/10/09 00:41:06;;;;;;;7.67;6.45;;;;;;;5.12;52.05;101476.23;1705837;82;21472;-62
2021/10/09 00:43:32;;;;;;;10.23;6.35;;;;;;;5.09;52.22;101469.70;1706769;81;21555;-62
2021/10/09 00:45:59;;;;;;;8.53;5.87;;;;;;;5.09;52.21;101474.92;1713271;81;21570;-62
2021/10/09 00:48:26;;;;;;;10.75;6.65;;;;;;;5.04;52.19;101473.12;1710577;82;21646;-62
2021/10/09 00:50:53;;;;;;;12.13;6.80;;;;;;;5.03;52.42;101473.13;1704796;82;21878;-63
2021/10/09 00:53:20;;;;;;;9.38;6.28;;;;;;;5.03;52.12;101474.44;1693477;82;21526;-63
2021/10/09 00:55:47;;;;;;;9.83;5.92;;;;;;;5.00;52.38;101470.05;1702223;81;21538;-64
2021/10/09 00:58:14;;;;;;;9.38;6.53;;;;;;;4.99;52.66;101470.02;1697205;82;21436;-64
2021/10/09 01:00:42;;;;;;;9.53;6.20;;;;;;;4.96;52.83;101469.58;1702369;82;21482;-63
2021/10/09 01:03:10;;;;;;;11.22;5.87;;;;;;;4.93;52.70;101463.02;1707781;81;22055;-64
2021/10/09 01:05:37;;;;;;;9.85;6.22;;;;;;;4.90;52.76;101464.31;1697163;82;21633;-63
2021/10/09 01:08:04;;;;;;;10.30;6.50;;;;;;;4.87;52.93;101463.84;1701421;82;21556;-63
2021/10/09 01:10:33;;;;;;;11.35;6.05;;;;;;;4.84;52.94;101461.63;1700228;82;21568;-63
2021/10/09 01:13:03;;;;;;;9.48;6.03;;;;;;;4.83;53.00;101463.37;1719216;82;21549;-63
2021/10/09 01:15:31;;;;;;;6.92;5.47;;;;;;;4.81;53.02;101462.92;1720006;80;21821;-65
2021/10/09 01:18:20;;;;;;;8.05;5.75;;;;;;;4.79;53.21;101459.42;1719268;82;21471;-64
2021/10/09 01:20:54;;;;;;;9.85;5.83;;;;;;;4.78;53.43;101462.88;1715800;82;21483;-64
2021/10/09 01:23:23;;;;;;;9.20;6.12;;;;;;;4.74;53.41;101463.71;1727570;80;21088;-65
2021/10/09 01:25:50;;;;;;;6.75;5.17;;;;;;;4.72;53.51;101466.73;1714327;82;21533;-65
2021/10/09 01:28:18;;;;;;;9.73;6.28;;;;;;;4.67;53.70;101458.84;1726432;81;21824;-65
2021/10/09 01:30:45;;;;;;;7.85;6.28;;;;;;;4.62;53.68;101461.42;1723681;80;21526;-65
2021/10/09 01:33:12;;;;;;;9.83;6.05;;;;;;;4.61;53.76;101460.09;1714419;82;21619;-66
2021/10/09 01:35:54;;;;;;;8.33;6.45;;;;;;;4.58;53.89;101460.08;1717284;82;20951;-65
2021/10/09 01:38:25;;;;;;;9.35;6.20;;;;;;;4.52;53.96;101457.39;1713865;82;21483;-64
2021/10/09 01:40:53;;;;;;;7.35;5.45;;;;;;;4.45;54.07;101452.12;1717687;82;22116;-65
2021/10/09 01:43:22;;;;;;;8.75;5.62;;;;;;;4.41;54.11;101461.20;1687610;80;21526;-65
2021/10/09 01:45:49;;;;;;;10.93;6.20;;;;;;;4.36;54.24;101462.43;1684448;82;28652;-64
2021/10/09 01:48:16;;;;;;;9.15;5.90;;;;;;;4.32;54.36;101451.97;1729790;82;21632;-66
2021/10/09 01:50:43;;;;;;;8.13;5.87;;;;;;;4.26;54.52;101458.84;1714709;82;21454;-65
2021/10/09 01:53:12;;;;;;;11.65;6.33;;;;;;;4.22;54.67;101459.67;1718903;82;21893;-65
2021/10/09 01:55:40;;;;;;;10.95;6.78;;;;;;;4.18;54.74;101452.69;1714996;82;21550;-65
2021/10/09 01:58:09;;;;;;;11.55;6.75;;;;;;;4.14;54.71;101450.87;1717802;82;21593;-65
2021/10/09 02:00:38;;;;;;;11.80;6.33;;;;;;;4.12;54.69;101453.88;1721502;82;21548;-64
2021/10/09 02:03:07;;;;;;;12.07;6.22;;;;;;;4.06;54.73;101454.68;1717919;82;21036;-64
2021/10/09 02:05:35;;;;;;;10.13;7.08;;;;;;;4.01;54.95;101454.17;1716205;81;21757;-65
2021/10/09 02:08:03;;;;;;;9.30;6.90;;;;;;;3.96;55.24;101456.73;1727405;82;21562;-65
2021/10/09 02:10:30;;;;;;;12.40;6.50;;;;;;;3.90;55.48;101457.52;1717674;81;20998;-65
2021/10/09 02:13:04;;;;;;;14.30;6.87;;;;;;;3.85;55.71;101457.88;1714408;81;21104;-67
2021/10/09 02:15:35;;;;;;;10.58;7.00;;;;;;;3.82;55.67;101458.27;1699552;82;21558;-63
2021/10/09 02:26:14;;;;;;;10.28;7.00;;;;;;;3.66;56.29;101450.24;1697786;82;21578;-62
2021/10/09 02:28:43;;;;;;;12.80;6.87;;;;;;;3.64;56.38;101453.69;1697477;82;21469;-62
2021/10/09 02:31:10;;;;;;;10.75;7.70;;;;;;;3.61;56.47;101453.63;1701731;82;22567;-62
2021/10/09 02:33:37;;;;;;;13.53;6.80;;;;;;;3.60;56.63;101457.97;1700578;82;21559;-62
2021/10/09 02:36:04;;;;;;;10.98;6.55;;;;;;;3.57;56.58;101456.61;1701372;82;21460;-62
2021/10/09 02:38:31;;;;;;;;;;;;;;;3.57;56.50;101459.21;1700892;81;21570;-61
2021/10/09 02:40:58;;;;;;;11.10;6.15;;;;;;;3.57;56.66;101460.95;1696504;81;20481;-62
2021/10/09 02:43:25;;;;;;;12.70;7.12;;;;;;;3.54;56.24;101455.25;1700752;81;21746;-62
2021/10/09 02:45:53;;;;;;;14.25;6.67;;;;;;;3.50;56.50;101458.66;1708323;82;21396;-62
2021/10/09 02:48:23;;;;;;;13.10;6.45;;;;;;;3.51;56.46;101459.99;1705649;82;21515;-62
2021/10/09 02:50:50;;;;;;;;;;;;;;;3.50;56.60;101458.27;1712988;82;21588;-60
2021/10/09 02:53:18;;;;;;;13.05;6.72;;;;;;;3.47;56.90;101458.20;1699082;82;20430;-61
2021/10/09 02:55:45;;;;;;;20.60;6.72;;;;;;;3.43;56.56;101456.41;1713652;82;22031;-61
2021/10/09 02:58:12;;;;;;;14.33;6.57;;;;;;;3.41;56.67;101458.52;1702362;82;21614;-59
2021/10/09 03:00:39;;;;;;;11.55;6.87;;;;;;;3.39;56.88;101455.92;1707368;81;21394;-59
2021/10/09 03:03:06;;;;;;;9.78;6.72;;;;;;;3.39;56.77;101457.22;1710464;82;21495;-60
2021/10/09 03:05:32;;;;;;;8.73;6.45;;;;;;;3.38;56.84;101455.45;1698900;82;21559;-60
2021/10/09 03:07:59;;;;;;;12.95;6.62;;;;;;;3.34;56.83;101458.86;1700186;82;21534;-60
2021/10/09 03:10:27;;;;;;;10.85;6.28;;;;;;;3.32;56.78;101460.57;1703759;82;21574;-60
2021/10/09 03:12:54;;;;;;;14.03;6.90;;;;;;;3.30;56.94;101456.64;1708685;82;20972;-59
2021/10/09 03:15:21;;;;;;;10.38;6.55;;;;;;;3.22;56.90;101454.75;1719814;81;21498;-60
2021/10/09 03:17:49;;;;;;;11.90;7.20;;;;;;;3.22;56.90;101454.75;1716202;81;21502;-60
2021/10/09 03:20:16;;;;;;;15.00;7.60;;;;;;;3.19;57.29;101451.69;1711035;82;22040;-59
2021/10/09 03:22:44;;;;;;;10.48;6.92;;;;;;;3.17;57.45;101461.63;1721683;81;21580;-60
2021/10/09 03:25:13;;;;;;;13.68;7.12;;;;;;;3.12;57.53;101452.44;1707412;82;21550;-59
2021/10/09 03:27:41;;;;;;;11.18;6.00;;;;;;;3.08;57.58;101454.10;1718579;82;21643;-59
2021/10/09 03:30:09;;;;;;;17.40;7.25;;;;;;;3.07;57.72;101456.27;1726780;82;21404;-59
2021/10/09 03:32:37;;;;;;;15.08;6.80;;;;;;;3.05;57.75;101454.08;1721482;82;21796;-60
2021/10/09 03:35:06;;;;;;;15.58;7.62;;;;;;;3.05;57.87;101457.97;1716157;82;21424;-59
2021/10/09 03:37:34;;;;;;;12.60;6.70;;;;;;;3.02;57.89;101455.74;1721220;80;21569;-59
2021/10/09 03:40:04;;;;;;;13.88;6.97;;;;;;;3.01;57.88;101453.98;1688772;82;21600;-60
2021/10/09 03:42:47;;;;;;;17.50;8.05;;;;;;;3.01;57.94;101452.67;1714717;82;21582;-60
2021/10/09 03:45:15;;;;;;;14.45;6.65;;;;;;;2.98;58.03;101447.02;1714842;82;21555;-60
2021/10/09 03:52:38;;;;;;;17.92;7.75;;;;;;;2.95;58.14;101459.08;1694023;82;20998;-59
2021/10/09 03:55:09;;;;;;;20.27;7.17;;;;;;;2.93;58.38;101454.71;1713924;82;22388;-59
2021/10/09 03:57:36;;;;;;;14.00;7.08;;;;;;;2.92;58.21;101463.38;1718926;82;21782;-59
2021/10/09 04:00:06;;;;;;;14.07;6.83;;;;;;;2.89;58.10;101468.50;1688029;82;21592;-59
2021/10/09 04:02:36;;;;;;;14.50;7.70;;;;;;;2.88;58.22;101464.17;1708787;82;21541;-60
2021/10/09 04:05:03;;;;;;;14.35;7.83;;;;;;;2.83;58.15;101459.31;1708044;81;21554;-59
2021/10/09 04:07:30;;;;;;;22.25;8.23;;;;;;;2.79;58.31;101465.70;1716795;81;21598;-59
2021/10/09 04:09:57;;;;;;;17.55;8.43;;;;;;;2.77;58.42;101472.60;1714646;82;21614;-61
2021/10/09 04:12:24;;;;;;;13.18;7.20;;;;;;;2.74;58.68;101474.73;1709658;82;21579;-62
2021/10/09 04:14:51;;;;;;;18.73;7.83;;;;;;;2.73;58.74;101475.56;1709797;82;21511;-59
2021/10/09 04:17:18;;;;;;;13.60;7.97;;;;;;;2.74;58.75;101474.73;1708639;82;21505;-59
2021/10/09 04:19:45;;;;;;;13.43;7.35;;;;;;;2.70;58.75;101471.63;1704854;82;21408;-60
2021/10/09 04:22:13;;;;;;;14.70;7.40;;;;;;;2.67;58.90;101475.02;1703427;82;21543;-60
2021/10/09 04:24:41;;;;;;;24.47;7.03;;;;;;;2.68;58.87;101475.49;1700781;82;21571;-60
2021/10/09 04:27:08;;;;;;;14.33;7.43;;;;;;;2.69;58.83;101482.45;1696043;82;21443;-59
2021/10/09 04:29:36;;;;;;;18.05;8.18;;;;;;;2.70;58.74;101488.08;1711305;81;21472;-60
2021/10/09 04:32:05;;;;;;;13.00;6.60;;;;;;;2.67;58.84;101485.41;1696271;82;21041;-60
2021/10/09 04:34:32;;;;;;;16.45;8.03;;;;;;;2.67;58.89;101488.01;1704295;82;21809;-60
2021/10/09 04:36:59;;;;;;;9.83;6.97;;;;;;;2.65;58.98;101480.61;1706148;81;21582;-60
2021/10/09 04:39:28;;;;;;;13.78;7.20;;;;;;;2.66;59.08;101486.71;1702857;82;21499;-60
2021/10/09 04:41:56;;;;;;;;;;;;;;;2.65;59.18;101488.41;1708932;82;21077;-61
2021/10/09 04:44:22;;;;;;;12.53;7.10;;;;;;;2.66;59.32;101485.41;1702413;82;20498;-61
2021/10/09 04:46:50;;;;;;;14.65;6.30;;;;;;;2.65;59.09;101484.94;1704656;82;27145;-61
2021/10/09 04:49:17;;;;;;;15.70;7.40;;;;;;;2.65;58.99;101489.70;1714492;82;21019;-61
2021/10/09 04:51:45;;;;;;;13.60;7.42;;;;;;;2.69;58.98;101490.64;1713766;82;21480;-60
2021/10/09 04:54:13;;;;;;;12.45;7.05;;;;;;;2.71;59.03;101492.44;1697634;82;21535;-62
2021/10/09 04:56:40;;;;;;;16.07;7.30;;;;;;;2.73;59.03;101492.45;1707049;81;21636;-60
2021/10/09 04:59:07;;;;;;;12.43;7.40;;;;;;;2.78;58.94;101492.55;1708306;82;21753;-59
2021/10/09 05:01:35;;;;;;;16.05;7.65;;;;;;;2.82;58.82;101485.26;1702064;82;21022;-60
2021/10/09 05:04:03;;;;;;;12.78;7.72;;;;;;;2.84;58.63;101488.76;1692315;81;21574;-61
2021/10/09 05:06:33;;;;;;;12.93;8.05;;;;;;;2.88;58.61;101486.27;1716714;82;21066;-60
2021/10/09 05:08:59;;;;;;;13.72;7.37;;;;;;;2.92;58.59;101489.80;1707532;82;21396;-60
2021/10/09 05:11:26;;;;;;;16.00;7.70;;;;;;;2.97;58.47;101496.36;1699365;82;22148;-60
2021/10/09 05:13:53;;;;;;;15.15;8.33;;;;;;;3.00;58.43;101490.80;1701705;82;21009;-60
2021/10/09 05:16:20;;;;;;;11.63;7.60;;;;;;;3.04;58.32;101496.49;1685680;83;21629;-60
2021/10/09 05:18:48;;;;;;;18.25;8.65;;;;;;;3.06;58.34;101492.19;1700468;83;21509;-62
2021/10/09 05:21:16;;;;;;;;;;;;;;;3.08;58.32;101487.89;1711146;83;21538;-61
2021/10/09 05:23:44;;;;;;;17.00;7.78;;;;;;;3.15;58.38;101491.48;1708413;81;22162;-61
2021/10/09 05:26:11;;;;;;;16.50;8.27;;;;;;;3.20;58.09;101494.15;1700507;83;21056;-61
2021/10/09 05:31:11;;;;;;;14.75;8.45;;;;;;;3.28;57.66;101497.78;1698595;81;21521;-62
2021/10/09 05:33:42;;;;;;;17.27;8.15;;;;;;;3.33;57.62;101498.70;1702477;81;21605;-62
2021/10/09 05:36:08;;;;;;;13.62;8.50;;;;;;;3.36;57.67;101497.47;1697544;82;22052;-62
2021/10/09 05:38:35;;;;;;;16.48;9.00;;;;;;;3.42;57.56;101502.75;1707703;81;21489;-62
2021/10/09 05:41:03;;;;;;;13.48;8.75;;;;;;;3.46;57.59;101499.34;1712290;82;21578;-62
2021/10/09 05:43:32;;;;;;;11.18;7.65;;;;;;;3.53;57.33;101501.64;1702424;83;21585;-63
2021/10/09 05:45:59;;;;;;;10.90;7.65;;;;;;;3.60;57.16;101496.09;1702143;82;21560;-63
2021/10/09 05:48:27;;;;;;;13.58;7.62;;;;;;;3.67;57.00;101499.23;1704436;81;22098;-64
2021/10/09 05:56:15;;;;;;;16.62;8.38;;;;;;;3.87;56.50;101498.24;1702290;81;21467;-63
2021/10/09 06:45:08;;;;;;;14.15;6.25;;;;;;;5.49;52.27;101520.89;1627182;86;21684;-70
2021/10/09 07:00:59;;;;;;;9.53;5.72;;;;;;;6.12;50.70;101518.31;1702403;81;21645;-69
2021/10/09 07:03:26;;;;;;;9.78;5.30;;;;;;;6.22;50.51;101519.23;1703241;81;21595;-69
2021/10/09 07:05:55;;;;;;;8.38;5.65;;;;;;;6.31;49.20;101515.36;1698695;83;21498;-70
2021/10/09 07:08:24;;;;;;;9.48;5.55;;;;;;;6.42;49.41;101521.92;1700128;81;21754;-70
2021/10/09 07:10:57;;;;;;;13.05;5.90;;;;;;;6.52;49.25;101521.55;1706869;82;21005;-68
2021/10/09 07:13:24;;;;;;;8.28;5.08;;;;;;;6.63;49.35;101518.55;1667663;82;21585;-69
2021/10/09 07:15:52;;;;;;;13.55;5.72;;;;;;;6.74;48.86;101520.76;1723354;82;27171;-68
2021/10/09 07:18:18;;;;;;;9.08;5.20;;;;;;;6.84;48.79;101517.73;1724093;82;21420;-70
2021/10/09 07:20:46;;;;;;;8.93;4.87;;;;;;;6.96;48.25;101515.56;1714613;82;21754;-68
2021/10/09 07:23:12;;;;;;;10.00;5.42;;;;;;;7.07;48.12;101514.28;1716332;81;20998;-68
2021/10/09 07:27:23;;;;;;;7.30;4.80;;;;;;;7.29;47.59;101515.16;1785956;78;23111;-68
2021/10/09 07:29:49;;;;;;;6.75;4.83;;;;;;;7.35;47.56;101512.56;1723975;81;21491;-63
2021/10/09 07:32:16;;;;;;;12.75;5.33;;;;;;;7.46;46.45;101517.78;1732583;80;22045;-64
2021/10/09 07:34:43;;;;;;;12.15;5.50;;;;;;;7.56;46.22;101518.23;1732341;80;21649;-64
2021/10/09 07:37:10;;;;;;;6.35;4.80;;;;;;;7.67;46.09;101516.92;1686287;81;21455;-68
2021/10/09 07:39:37;;;;;;;10.98;4.72;;;;;;;7.76;45.55;101517.78;1699674;81;21051;-66
2021/10/09 07:42:04;;;;;;;7.30;4.77;;;;;;;7.86;44.73;101516.45;1700445;81;21537;-65
2021/10/09 07:44:32;;;;;;;;;;;;;;;7.93;44.63;101519.47;1693616;82;21740;-67
2021/10/09 07:46:59;;;;;;;10.70;4.83;;;;;;;8.02;43.56;101515.98;1691258;82;20457;-67
2021/10/09 07:49:25;;;;;;;10.72;5.05;;;;;;;8.09;44.03;101518.57;1703984;82;22339;-67
2021/10/09 07:51:52;;;;;;;10.50;4.83;;;;;;;8.18;44.07;101516.38;1698293;83;21536;-66
2021/10/09 07:54:19;;;;;;;6.67;4.33;;;;;;;8.28;44.05;101516.77;1682537;82;21546;-68
2021/10/09 07:56:45;;;;;;;9.73;4.72;;;;;;;8.38;43.65;101518.91;1695789;82;21811;-67
2021/10/09 07:59:12;;;;;;;8.50;4.90;;;;;;;8.47;43.35;101524.16;1692705;82;21034;-66
2021/10/09 08:01:39;;;;;;;9.73;5.03;;;;;;;8.56;43.03;101512.31;1696873;83;21650;-66
2021/10/09 08:04:08;;;;;;;8.93;4.25;;;;;;;8.64;42.34;101510.97;1698964;82;21002;-65
2021/10/09 08:06:34;;;;;;;11.50;4.55;;;;;;;8.71;42.07;101506.58;1695736;82;21057;-67
2021/10/09 08:09:03;;;;;;;6.28;4.10;;;;;;;8.81;42.02;101510.02;1704466;83;21570;-67
2021/10/09 08:11:30;;;;;;;5.93;4.10;;;;;;;8.91;41.76;101499.88;1693488;81;22004;-67
2021/10/09 08:13:57;;;;;;;5.45;4.37;;;;;;;9.01;41.45;101503.34;1698869;81;21546;-68
2021/10/09 08:16:23;;;;;;;6.47;4.15;;;;;;;9.08;40.37;101498.04;1702024;83;21545;-67
2021/10/09 08:18:50;;;;;;;7.55;4.40;;;;;;;9.14;40.42;101495.36;1701938;81;21466;-67
2021/10/09 08:21:22;;;;;;;5.53;3.55;;;;;;;9.23;40.50;101495.75;1687540;83;22079;-67
2021/10/09 08:23:56;;;;;;;5.12;3.67;;;;;;;9.33;39.95;101488.21;1693374;81;21475;-67
2021/10/09 08:38:45;;;;;;;6.42;3.08;;;;;;;9.91;38.37;101495.13;1677429;82;21519;-67
2021/10/09 08:39:49;;;;;;;4.58;3.52;;;;;;;9.99;37.09;101492.42;1682152;83;21552;-64
2021/10/09 08:42:16;;;;;;;4.45;3.12;;;;;;;10.06;37.22;101488.39;1682838;82;21513;-64
2021/10/09 08:44:43;;;;;;;7.62;3.42;;;;;;;10.14;36.40;101487.84;1676124;84;21542;-65
2021/10/09 08:47:12;;;;;;;7.20;3.00;;;;;;;10.24;36.61;101486.42;1676145;84;22115;-64
2021/10/09 08:49:39;;;;;;;4.30;2.85;;;;;;;10.36;36.25;101488.95;1683599;82;21466;-68
2021/10/09 08:52:05;;;;;;;12.25;2.80;;;;;;;10.47;35.89;101484.84;1715576;81;21526;-68
2021/10/09 08:54:38;;;;;;;4.25;2.60;;;;;;;10.60;35.48;101481.16;1681426;83;21084;-67
2021/10/09 08:57:19;;;;;;;10.90;2.37;;;;;;;10.70;34.92;101481.47;1727387;80;21547;-68
2021/10/09 08:59:58;;;;;;;5.37;2.42;;;;;;;10.83;34.08;101486.12;1674001;82;21847;-67
2021/10/09 09:02:36;;;;;;;4.10;2.35;;;;;;;10.96;33.89;101475.39;1663286;82;21040;-66
2021/10/09 09:08:16;;;;;;;5.20;2.30;;;;;;;11.13;33.10;101477.77;1723896;81;20991;-62
2021/10/09 09:33:38;;;;;;;3.40;2.22;;;;;;;12.07;29.85;101473.94;1725524;82;21489;-67
2021/10/09 09:41:15;;;;;;;4.85;1.87;;;;;;;12.32;29.29;101461.98;1727343;82;21784;-66
2021/10/09 09:43:42;;;;;;;4.08;1.62;;;;;;;12.40;29.47;101459.62;1718450;80;21600;-66
2021/10/09 09:46:15;;;;;;;8.05;2.12;;;;;;;12.55;29.22;101451.82;1692265;82;20990;-66
2021/10/09 09:48:43;;;;;;;3.00;1.80;;;;;;;12.68;28.23;101452.42;1686054;82;21032;-66
2021/10/09 09:51:11;;;;;;;8.35;1.92;;;;;;;12.79;28.76;101452.16;1720626;80;21459;-65
2021/10/09 09:53:43;;;;;;;7.03;1.75;;;;;;;12.93;28.67;101449.21;1697328;82;21904;-64
2021/10/09 09:56:12;;;;;;;2.77;1.72;;;;;;;13.01;28.19;101444.59;1737841;82;21400;-64
2021/10/09 09:58:40;;;;;;;;;;;;;;;13.09;27.62;101442.66;1687418;82;21569;-64
2021/10/09 10:01:09;;;;;;;3.00;2.27;;;;;;;13.11;26.07;101439.95;1670485;83;20445;-66
2021/10/09 10:03:40;;;;;;;3.55;1.92;;;;;;;13.10;27.78;101436.45;1673825;84;21534;-65
2021/10/09 10:06:07;;;;;;;6.42;2.22;;;;;;;13.14;27.00;101449.13;1656139;84;22153;-63
2021/10/09 10:08:34;;;;;;;6.72;2.05;;;;;;;13.16;27.26;101442.89;1684619;83;21089;-63
2021/10/09 10:11:02;;;;;;;2.52;1.70;;;;;;;13.20;27.25;101434.02;1678794;83;22415;-64
2021/10/09 10:13:31;;;;;;;6.40;1.90;;;;;;;13.28;27.32;101443.49;1687047;84;21542;-63
2021/10/09 10:16:06;;;;;;;3.08;2.00;;;;;;;13.29;27.24;101440.82;1687800;82;21550;-64
2021/10/09 10:18:49;;;;;;;5.30;2.22;;;;;;;13.33;26.96;101437.69;1665806;84;22106;-69
2021/10/09 10:21:30;;;;;;;3.12;1.80;;;;;;;13.31;26.96;101436.86;1691187;82;21012;-69
2021/10/09 10:23:57;;;;;;;6.08;1.98;;;;;;;13.27;26.99;101439.99;1657056;82;21605;-63
2021/10/09 10:26:30;;;;;;;2.55;2.00;;;;;;;13.20;26.62;101427.41;1674303;84;21573;-65
2021/10/09 10:29:02;;;;;;;3.25;2.17;;;;;;;13.19;26.75;101426.98;1689340;83;21593;-65
2021/10/09 10:31:30;;;;;;;5.50;2.02;;;;;;;13.25;26.91;101422.00;1681770;82;21814;-65
2021/10/09 10:34:23;;;;;;;6.55;1.95;;;;;;;13.33;27.28;101425.80;1681709;82;21588;-62
2021/10/09 10:36:50;;;;;;;2.08;1.87;;;;;;;13.41;26.87;101422.48;1679054;82;21547;-65
2021/10/09 10:39:20;;;;;;;4.17;2.02;;;;;;;13.47;26.66;101417.49;1684317;82;21583;-64
2021/10/09 10:41:55;;;;;;;3.35;1.98;;;;;;;13.53;26.63;101425.28;1685891;82;21550;-67
2021/10/09 10:45:34;;;;;;;5.85;1.77;;;;;;;13.66;26.49;101425.83;1682559;82;21806;-64
2021/10/09 10:53:33;;;;;;;2.33;2.02;;;;;;;13.76;25.89;101419.36;1683495;82;21581;-65
2021/10/09 10:56:09;;;;;;;6.37;1.90;;;;;;;13.78;25.54;101419.72;1680455;82;21005;-64
2021/10/09 10:58:37;;;;;;;5.40;2.10;;;;;;;13.81;25.53;101414.82;1679520;82;21872;-65
2021/10/09 11:01:20;;;;;;;4.40;2.00;;;;;;;13.87;25.71;101412.00;1681071;82;21587;-66
2021/10/09 11:03:55;;;;;;;2.92;2.40;;;;;;;13.97;25.96;101405.98;1678735;82;21572;-65
2021/10/09 11:06:25;;;;;;;3.95;2.10;;;;;;;14.07;25.85;101405.25;1680624;82;21497;-65
2021/10/09 11:08:53;;;;;;;5.90;2.10;;;;;;;14.14;25.58;101401.52;1685031;82;21569;-63
2021/10/09 11:11:35;;;;;;;6.40;2.10;;;;;;;14.18;25.49;101403.16;1683181;82;21817;-68
2021/10/09 11:14:02;;;;;;;3.25;2.00;;;;;;;14.24;25.24;101408.72;1682328;82;21181;-64
2021/10/09 11:16:31;;;;;;;4.60;1.97;;;;;;;14.27;25.17;101396.27;1680375;82;21632;-65
2021/10/09 11:18:57;;;;;;;3.20;2.40;;;;;;;14.28;24.87;101398.02;1679299;82;21357;-65
2021/10/09 11:21:24;;;;;;;4.67;2.27;;;;;;;14.31;25.24;101392.61;1680409;82;21507;-65
2021/10/09 11:23:54;;;;;;;3.33;1.90;;;;;;;14.37;25.06;101388.48;1682205;82;21755;-66
2021/10/09 11:26:25;;;;;;;3.17;1.92;;;;;;;14.43;24.90;101391.39;1681272;82;21537;-65
2021/10/09 11:29:04;;;;;;;9.33;2.20;;;;;;;14.45;24.68;101382.05;1699099;82;21472;-64
2021/10/09 11:31:31;;;;;;;4.58;2.50;;;;;;;14.50;24.56;101382.78;1699847;82;21598;-64
2021/10/09 11:34:02;;;;;;;7.53;2.52;;;;;;;14.54;24.62;101390.60;1699429;82;21655;-63
2021/10/09 11:36:29;;;;;;;4.03;2.65;;;;;;;14.57;24.54;101389.66;1701807;83;21754;-65
2021/10/09 11:39:12;;;;;;;7.78;2.30;;;;;;;14.63;24.69;101389.92;1689557;82;21573;-64
2021/10/09 11:41:37;;;;;;;4.97;2.37;;;;;;;14.71;24.57;101393.18;1695854;82;21624;-65
2021/10/09 11:44:23;;;;;;;4.67;2.55;;;;;;;14.79;24.67;101384.55;1701614;82;21539;-64
2021/10/09 11:55:22;;;;;;;13.32;2.37;;;;;;;14.96;24.12;101370.28;1693927;82;21526;-65
2021/10/09 11:57:49;;;;;;;4.83;2.45;;;;;;;15.08;24.11;101374.30;1704908;82;21533;-64
2021/10/09 12:00:36;;;;;;;2.47;2.20;;;;;;;15.21;23.92;101369.44;1696443;83;21529;-65
2021/10/09 12:03:28;;;;;;;4.90;2.05;;;;;;;15.37;23.83;101365.81;1695564;82;21795;-65
2021/10/09 12:05:57;;;;;;;3.02;2.17;;;;;;;15.54;23.59;101371.37;1688766;82;21577;-66
2021/10/09 12:08:26;;;;;;;5.15;2.00;;;;;;;15.83;23.47;101360.65;1697691;82;21578;-64
2021/10/09 12:11:15;;;;;;;5.37;2.17;;;;;;;16.13;22.91;101359.94;1688120;82;21585;-65
2021/10/09 12:13:53;;;;;;;3.98;2.00;;;;;;;16.45;22.48;101357.34;1692149;82;21625;-64
2021/10/09 12:16:31;;;;;;;;;;;;;;;16.91;22.29;101354.61;1704639;82;21667;-63
2021/10/09 12:19:08;;;;;;;6.40;2.42;;;;;;;17.29;21.61;101353.42;1689832;83;20435;-64
2021/10/09 12:21:54;;;;;;;3.20;2.35;;;;;;;17.68;21.63;101344.14;1704210;82;21594;-63
2021/10/09 12:24:23;;;;;;;9.23;2.27;;;;;;;18.00;20.81;101349.80;1697151;82;21474;-64
2021/10/09 12:27:13;;;;;;;4.53;2.15;;;;;;;18.22;20.40;101347.48;1703819;83;21522;-65
2021/10/09 12:29:59;;;;;;;3.92;2.12;;;;;;;18.36;20.20;101346.33;1681699;82;21573;-66
2021/10/09 12:32:27;;;;;;;2.75;2.15;;;;;;;18.57;20.41;101351.10;1688105;82;21128;-62
2021/10/09 12:35:11;;;;;;;;;;;;;;;18.70;20.07;101343.34;1686948;82;21627;-63
2021/10/09 12:38:00;;;;;;;4.05;2.17;;;;;;;18.73;19.67;101344.53;1686273;82;20529;-62
2021/10/09 12:40:43;;;;;;;4.08;2.12;;;;;;;18.66;20.06;101342.63;1685227;83;21558;-63
2021/10/09 12:43:13;;;;;;;4.70;2.60;;;;;;;18.56;19.79;101340.04;1685514;83;22141;-64
2021/10/09 12:45:41;;;;;;;3.17;1.98;;;;;;;18.49;20.03;101332.80;1688581;82;21613;-65
2021/10/09 12:48:08;;;;;;;3.08;2.00;;;;;;;18.41;19.93;101332.81;1677987;83;21548;-64
2021/10/09 12:50:38;;;;;;;3.08;2.00;;;;;;;18.31;20.02;101335.06;1693306;82;21498;-64
2021/10/09 12:53:05;;;;;;;6.17;1.98;;;;;;;18.22;19.86;101331.50;1694737;84;21594;-61
2021/10/09 12:55:34;;;;;;;4.03;2.20;;;;;;;18.07;19.82;101333.95;1686752;83;21762;-65
2021/10/09 12:58:08;;;;;;;6.28;1.95;;;;;;;17.94;19.91;101349.25;1682819;82;21441;-63
2021/10/09 13:00:36;;;;;;;3.85;2.50;;;;;;;17.92;20.13;101337.81;1696247;83;21575;-64
2021/10/09 13:03:03;;;;;;;7.55;2.25;;;;;;;17.94;20.10;101334.13;1697991;82;21479;-64
2021/10/09 13:05:32;;;;;;;5.62;2.10;;;;;;;18.08;20.18;101328.16;1681567;83;21452;-65
2021/10/09 13:08:00;;;;;;;4.87;2.22;;;;;;;18.27;20.05;101327.69;1722006;80;21490;-64
2021/10/09 13:10:29;;;;;;;;;;;;;;;18.42;19.34;101323.42;1730499;82;21498;-64
2021/10/09 13:12:56;;;;;;;7.87;2.05;;;;;;;18.54;19.10;101330.41;1737792;80;20489;-64
2021/10/09 13:15:23;;;;;;;4.15;2.40;;;;;;;18.72;19.30;101329.95;1735670;80;21585;-65
2021/10/09 13:17:51;;;;;;;2.90;2.20;;;;;;;19.00;19.14;101327.63;1693955;82;21526;-64
2021/10/09 13:20:18;;;;;;;6.20;2.37;;;;;;;19.26;19.12;101327.61;1683349;82;22025;-65
2021/10/09 13:22:47;;;;;;;8.23;2.45;;;;;;;19.89;18.83;101319.87;1683783;83;21036;-64
2021/10/09 13:25:14;;;;;;;4.28;2.60;;;;;;;19.89;18.83;101319.87;1733407;80;21003;-64
2021/10/09 13:27:42;;;;;;;5.10;2.10;;;;;;;20.15;18.65;101318.41;1729268;81;21043;-63
2021/10/09 13:30:10;;;;;;;8.80;2.23;;;;;;;20.28;18.17;101314.58;1725804;80;21550;-65
2021/10/09 13:32:40;;;;;;;3.87;1.92;;;;;;;20.38;17.74;101315.31;1671462;82;21835;-64
2021/10/09 13:35:07;;;;;;;4.95;2.40;;;;;;;20.48;17.80;101312.11;1684349;82;21569;-64
2021/10/09 13:37:38;;;;;;;4.12;2.20;;;;;;;20.61;17.82;101309.99;1682014;83;21567;-63
2021/10/09 13:40:06;;;;;;;7.25;2.37;;;;;;;20.71;17.50;101318.33;1682375;84;20990;-65
2021/10/09 13:42:32;;;;;;;6.75;2.50;;;;;;;20.71;17.56;101314.80;1680235;83;21062;-65
2021/10/09 13:44:59;;;;;;;2.90;2.00;;;;;;;20.72;17.71;101308.04;1719219;82;21464;-64
2021/10/09 13:47:26;;;;;;;2.30;2.10;;;;;;;20.84;17.93;101313.61;1723196;81;21030;-64
2021/10/09 13:49:52;;;;;;;4.37;2.40;;;;;;;20.95;18.00;101312.48;1690105;82;21554;-65
2021/10/09 13:52:19;;;;;;;5.03;2.40;;;;;;;21.05;17.64;101312.31;1680579;82;21108;-64
2021/10/09 13:54:49;;;;;;;2.47;2.10;;;;;;;21.13;17.05;101307.83;1679921;83;21425;-64
2021/10/09 13:57:16;;;;;;;4.55;2.10;;;;;;;21.02;17.09;101308.95;1720607;80;21878;-64
2021/10/09 13:59:43;;;;;;;3.47;1.95;;;;;;;20.98;17.11;101303.81;1723166;81;21577;-63